Time;durP1;ratioP1;P1;durP2;ratioP2;P2;SDS_P1;SDS_P2;PMS_P1;PMS_P2;Temp;Humidity;BMP_temperature;BMP_pressure;BME280_temperature;BME280_humidity;BME280_pressure;Samples;Min_cycle;Max_cycle;Signal;HPM_P1;HPM_P2
2021/01/03 00:01:43;;;;;;;12.27;9.23;;;15.90;60.40;;;;;;5041159;28;20202;-56
2021/01/03 00:04:10;;;;;;;10.07;8.37;;;15.90;61.00;;;;;;5031177;28;20214;-56
2021/01/03 00:06:36;;;;;;;12.63;9.50;;;15.90;60.30;;;;;;5038950;28;20225;-56
2021/01/03 00:09:03;;;;;;;11.57;9.10;;;15.90;60.30;;;;;;5031978;28;20222;-54
2021/01/03 00:11:29;;;;;;;13.67;8.83;;;15.90;60.40;;;;;;5037270;28;20221;-55
2021/01/03 00:13:55;;;;;;;10.33;8.93;;;15.90;60.20;;;;;;5031808;28;20861;-56
2021/01/03 00:16:22;;;;;;;10.40;8.37;;;15.90;60.30;;;;;;5037771;28;20205;-53
2021/01/03 00:18:48;;;;;;;14.80;8.83;;;15.90;60.20;;;;;;5037103;28;20844;-54
2021/01/03 00:21:15;;;;;;;11.60;8.87;;;15.90;60.20;;;;;;5045236;28;20191;-54
2021/01/03 00:23:41;;;;;;;12.07;9.37;;;15.90;60.20;;;;;;5039341;28;20197;-55
2021/01/03 00:26:08;;;;;;;11.57;8.83;;;15.90;60.30;;;;;;5045711;28;20197;-56
2021/01/03 00:28:34;;;;;;;10.27;8.43;;;15.90;60.20;;;;;;5038142;28;20206;-56
2021/01/03 00:31:00;;;;;;;11.20;8.80;;;15.90;60.20;;;;;;5045945;28;20202;-55
2021/01/03 00:33:27;;;;;;;12.53;8.93;;;15.80;60.20;;;;;;5044512;28;20234;-55
2021/01/03 00:35:53;;;;;;;10.50;8.47;;;15.90;60.20;;;;;;5037622;28;20210;-56
2021/01/03 00:38:23;;;;;;;13.23;9.23;;;15.90;60.20;;;;;;5046101;28;20202;-55
2021/01/03 00:40:50;;;;;;;12.10;8.57;;;15.80;60.20;;;;;;5036836;28;20268;-56
2021/01/03 00:43:16;;;;;;;11.07;8.57;;;15.80;60.20;;;;;;5045762;28;20214;-55
2021/01/03 00:45:43;;;;;;;11.07;8.13;;;15.80;60.20;;;;;;5033931;28;20198;-55
2021/01/03 00:48:10;;;;;;;11.03;8.50;;;15.80;60.20;;;;;;5046594;28;20201;-56
2021/01/03 00:50:37;;;;;;;11.13;8.37;;;15.80;60.20;;;;;;5036835;28;20209;-56
2021/01/03 00:53:04;;;;;;;11.03;8.10;;;15.80;60.20;;;;;;5046007;28;20206;-55
2021/01/03 00:55:30;;;;;;;9.73;8.00;;;15.80;60.20;;;;;;5039234;28;20210;-56
2021/01/03 00:57:57;;;;;;;11.63;8.70;;;15.80;60.20;;;;;;5047334;28;20213;-56
2021/01/03 01:00:30;;;;;;;10.83;8.50;;;15.80;60.20;;;;;;5035538;28;20234;-55
2021/01/03 01:02:58;;;;;;;11.17;8.70;;;15.80;60.20;;;;;;5046451;28;20210;-56
2021/01/03 01:05:24;;;;;;;12.73;8.60;;;15.80;60.20;;;;;;5036836;28;20206;-56
2021/01/03 01:07:51;;;;;;;9.47;7.97;;;15.80;60.10;;;;;;5046917;28;20757;-55
2021/01/03 01:10:21;;;;;;;11.10;8.53;;;15.80;60.10;;;;;;5037306;28;20213;-55
2021/01/03 01:12:50;;;;;;;11.63;8.87;;;15.80;60.10;;;;;;5045647;28;20198;-56
2021/01/03 01:15:19;;;;;;;11.03;8.13;;;15.80;60.10;;;;;;5040037;28;20203;-55
2021/01/03 01:17:50;;;;;;;10.97;8.43;;;15.80;60.10;;;;;;5043911;28;20195;-56
2021/01/03 01:20:19;;;;;;;10.80;8.73;;;15.80;60.20;;;;;;5044398;28;20304;-56
2021/01/03 01:22:46;;;;;;;11.87;9.00;;;15.70;60.10;;;;;;5038845;28;20194;-56
2021/01/03 01:25:16;;;;;;;10.13;7.80;;;15.80;60.00;;;;;;5043542;28;20201;-56
2021/01/03 01:27:42;;;;;;;10.53;8.47;;;15.80;60.10;;;;;;5036865;28;20202;-55
2021/01/03 01:30:11;;;;;;;10.17;8.20;;;15.70;60.00;;;;;;5043943;28;20214;-56
2021/01/03 01:32:38;;;;;;;10.30;8.03;;;15.80;60.00;;;;;;5037482;28;20702;-56
2021/01/03 01:35:07;;;;;;;9.97;8.03;;;15.70;60.00;;;;;;5041889;28;20202;-56
2021/01/03 01:37:33;;;;;;;11.10;8.50;;;15.70;60.00;;;;;;5037386;28;20209;-56
2021/01/03 01:39:59;;;;;;;12.63;8.40;;;15.80;60.10;;;;;;5043469;28;20233;-56
2021/01/03 01:42:26;;;;;;;10.37;8.30;;;15.70;60.00;;;;;;5039409;28;20202;-56
2021/01/03 01:44:52;;;;;;;11.07;8.57;;;15.70;60.00;;;;;;5042939;28;20198;-56
2021/01/03 01:47:24;;;;;;;11.57;9.20;;;15.70;60.10;;;;;;5038390;28;20213;-55
2021/01/03 01:49:53;;;;;;;13.77;9.23;;;15.70;60.10;;;;;;5021976;28;20226;-55
2021/01/03 01:52:25;;;;;;;12.60;9.20;;;15.70;60.10;;;;;;5037294;28;20233;-56
2021/01/03 01:54:57;;;;;;;9.93;8.03;;;15.70;60.00;;;;;;5043450;28;20225;-56
2021/01/03 01:57:32;;;;;;;12.20;9.63;;;15.70;60.10;;;;;;5039141;28;20217;-55
2021/01/03 02:00:19;;;;;;;12.63;8.93;;;15.70;60.00;;;;;;5045481;28;20230;-56
2021/01/03 02:03:03;;;;;;;11.67;9.07;;;15.70;60.00;;;;;;5038722;28;20205;-56
2021/01/03 02:05:53;;;;;;;10.90;8.53;;;15.70;60.00;;;;;;5042753;28;20202;-56
2021/01/03 02:08:58;;;;;;;12.87;9.00;;;15.70;60.10;;;;;;5037933;28;20221;-55
2021/01/03 02:11:27;;;;;;;12.40;9.03;;;15.70;60.10;;;;;;5020584;28;20214;-55
2021/01/03 02:13:56;;;;;;;11.27;8.57;;;15.70;60.10;;;;;;5038668;28;20618;-55
2021/01/03 02:16:29;;;;;;;12.53;9.60;;;15.70;60.00;;;;;;5048693;28;20213;-56
2021/01/03 02:18:55;;;;;;;13.03;9.57;;;15.70;60.00;;;;;;5041013;28;20206;-56
2021/01/03 02:21:31;;;;;;;11.23;9.27;;;15.70;60.00;;;;;;5050685;28;20191;-56
2021/01/03 02:24:06;;;;;;;12.80;9.70;;;15.70;60.00;;;;;;5040562;28;21362;-55
2021/01/03 02:26:40;;;;;;;11.93;8.80;;;15.60;60.00;;;;;;5048034;28;20217;-55
2021/01/03 02:29:11;;;;;;;13.13;9.70;;;15.70;60.00;;;;;;5041457;28;20210;-56
2021/01/03 02:31:50;;;;;;;14.13;10.00;;;15.70;60.00;;;;;;5048294;28;20203;-56
2021/01/03 02:34:26;;;;;;;13.57;10.00;;;15.70;60.00;;;;;;5040244;28;20214;-55
2021/01/03 02:37:01;;;;;;;12.33;10.23;;;15.70;60.00;;;;;;5049608;28;20198;-56
2021/01/03 02:39:50;;;;;;;13.27;9.57;;;15.60;59.90;;;;;;5040213;28;20229;-56
2021/01/03 02:42:25;;;;;;;14.47;10.57;;;15.70;60.00;;;;;;5047303;28;20198;-56
2021/01/03 02:44:52;;;;;;;13.03;9.47;;;15.60;59.90;;;;;;5040196;28;20194;-55
2021/01/03 02:47:23;;;;;;;12.70;9.77;;;15.70;59.90;;;;;;5046481;28;20195;-56
2021/01/03 02:49:50;;;;;;;13.33;10.10;;;15.60;59.80;;;;;;5041092;28;20198;-56
2021/01/03 02:52:26;;;;;;;12.57;9.90;;;15.70;60.00;;;;;;5049973;28;20202;-56
2021/01/03 02:54:52;;;;;;;14.93;10.07;;;15.70;60.00;;;;;;5039086;28;20206;-56
2021/01/03 02:57:18;;;;;;;11.93;9.90;;;15.60;60.50;;;;;;5048565;28;20206;-54
2021/01/03 02:59:45;;;;;;;11.80;9.13;;;15.60;59.90;;;;;;5041495;28;20225;-54
2021/01/03 03:02:11;;;;;;;12.43;9.33;;;15.60;59.90;;;;;;5046194;28;20200;-56
2021/01/03 03:04:38;;;;;;;13.03;9.90;;;15.60;59.90;;;;;;5047642;28;20203;-56
2021/01/03 03:07:04;;;;;;;13.80;10.17;;;15.60;59.90;;;;;;5039125;28;20198;-56
2021/01/03 03:09:31;;;;;;;13.67;10.17;;;15.60;60.50;;;;;;5050124;28;20701;-54
2021/01/03 03:11:57;;;;;;;13.80;9.90;;;15.70;59.90;;;;;;5038532;28;20206;-55
2021/01/03 03:14:23;;;;;;;11.97;9.77;;;15.60;59.90;;;;;;5049636;28;20662;-56
2021/01/03 03:16:57;;;;;;;13.37;10.00;;;15.60;59.90;;;;;;5038013;28;20209;-55
2021/01/03 03:19:24;;;;;;;13.00;9.47;;;15.60;59.80;;;;;;5049214;28;20222;-56
2021/01/03 03:21:54;;;;;;;13.23;9.93;;;15.60;59.90;;;;;;5039282;28;20633;-56
2021/01/03 03:24:20;;;;;;;14.07;10.40;;;15.60;59.90;;;;;;5046498;28;20276;-56
2021/01/03 03:26:54;;;;;;;13.77;10.17;;;15.60;59.80;;;;;;5037261;28;20203;-54
2021/01/03 03:29:22;;;;;;;14.67;10.27;;;15.60;59.90;;;;;;5050006;28;20206;-56
2021/01/03 03:31:50;;;;;;;14.37;9.60;;;15.70;59.90;;;;;;5038491;28;20210;-56
2021/01/03 03:34:17;;;;;;;15.33;9.67;;;15.60;59.90;;;;;;5046318;28;20187;-56
2021/01/03 03:36:43;;;;;;;13.53;10.47;;;15.60;60.10;;;;;;5039979;28;20218;-55
2021/01/03 03:39:09;;;;;;;13.53;9.90;;;15.60;59.90;;;;;;5047602;28;20210;-56
2021/01/03 03:41:36;;;;;;;14.67;10.03;;;15.60;59.80;;;;;;5037956;28;20199;-54
2021/01/03 03:44:04;;;;;;;13.20;10.27;;;15.60;59.80;;;;;;5046293;28;20713;-56
2021/01/03 03:46:31;;;;;;;13.37;10.77;;;15.60;59.80;;;;;;5041948;28;20191;-55
2021/01/03 03:48:57;;;;;;;13.57;10.20;;;15.60;59.80;;;;;;5044254;28;20209;-57
2021/01/03 03:51:23;;;;;;;14.93;10.63;;;15.60;59.80;;;;;;5044895;28;20203;-57
2021/01/03 03:53:50;;;;;;;15.20;10.87;;;15.60;59.80;;;;;;5038052;28;20209;-56
2021/01/03 03:56:16;;;;;;;14.10;10.67;;;15.60;59.80;;;;;;5048487;28;20229;-56
2021/01/03 03:58:44;;;;;;;14.23;10.93;;;15.60;59.80;;;;;;5038107;28;20211;-56
2021/01/03 04:01:10;;;;;;;13.13;10.60;;;15.50;59.80;;;;;;5047269;28;20187;-56
2021/01/03 04:03:37;;;;;;;14.27;11.70;;;15.50;59.80;;;;;;5036232;28;20187;-56
2021/01/03 04:06:04;;;;;;;15.77;11.17;;;15.50;59.80;;;;;;5046677;28;20233;-56
2021/01/03 04:08:31;;;;;;;16.17;11.07;;;15.50;59.70;;;;;;5039254;28;20517;-56
2021/01/03 04:10:58;;;;;;;15.07;11.40;;;15.60;59.70;;;;;;5045248;28;20205;-55
2021/01/03 04:13:26;;;;;;;15.93;12.03;;;15.50;59.80;;;;;;5038218;28;20218;-56
2021/01/03 04:15:52;;;;;;;14.70;11.50;;;15.50;59.70;;;;;;5048405;28;20642;-56
2021/01/03 04:18:18;;;;;;;14.37;11.30;;;15.50;59.70;;;;;;5035960;28;20195;-56
2021/01/03 04:20:44;;;;;;;17.57;12.07;;;15.60;59.80;;;;;;5047264;28;20593;-56
2021/01/03 04:23:11;;;;;;;16.40;12.03;;;15.50;59.70;;;;;;5037878;28;20198;-56
2021/01/03 04:25:38;;;;;;;15.73;12.23;;;15.50;59.70;;;;;;5045916;28;20191;-56
2021/01/03 04:28:05;;;;;;;17.10;12.40;;;15.50;59.70;;;;;;5047430;28;20225;-56
2021/01/03 04:30:31;;;;;;;15.57;12.20;;;15.50;59.70;;;;;;5035834;28;20207;-56
2021/01/03 04:32:57;;;;;;;18.10;13.03;;;15.50;59.70;;;;;;5046058;28;20237;-54
2021/01/03 04:35:24;;;;;;;16.53;12.27;;;15.50;59.70;;;;;;5034870;28;20214;-56
2021/01/03 04:37:52;;;;;;;16.33;12.30;;;15.60;59.70;;;;;;5048006;28;20210;-56
2021/01/03 04:40:23;;;;;;;17.37;13.13;;;15.50;59.70;;;;;;5036302;28;20218;-54
2021/01/03 04:42:56;;;;;;;17.67;13.87;;;15.50;59.70;;;;;;5044859;28;20194;-55
2021/01/03 04:45:26;;;;;;;17.80;13.53;;;15.50;59.70;;;;;;5036839;28;20206;-55
2021/01/03 04:48:03;;;;;;;17.17;13.10;;;15.50;59.70;;;;;;5047245;28;20204;-55
2021/01/03 04:50:54;;;;;;;17.90;13.43;;;15.50;59.70;;;;;;5036408;28;20202;-56
2021/01/03 04:53:27;;;;;;;17.70;13.40;;;15.50;59.90;;;;;;5045588;28;20198;-56
2021/01/03 04:56:02;;;;;;;17.90;13.67;;;15.50;59.80;;;;;;5038028;28;20732;-56
2021/01/03 04:59:03;;;;;;;17.37;13.53;;;15.50;59.60;;;;;;5046510;28;20542;-56
2021/01/03 05:01:38;;;;;;;18.27;13.53;;;15.50;59.70;;;;;;5026532;28;20206;-56
2021/01/03 05:04:34;;;;;;;17.93;14.07;;;15.50;59.70;;;;;;5044933;28;20856;-55
2021/01/03 05:07:05;;;;;;;19.10;13.53;;;15.50;59.70;;;;;;5038754;28;20217;-55
2021/01/03 05:09:31;;;;;;;18.20;13.33;;;15.50;59.70;;;;;;5045645;28;20214;-56
2021/01/03 05:12:23;;;;;;;17.93;13.87;;;15.40;59.60;;;;;;5039627;28;20198;-55
2021/01/03 05:15:10;;;;;;;17.63;13.53;;;15.50;59.70;;;;;;5044988;28;20202;-56
2021/01/03 05:17:36;;;;;;;18.53;13.43;;;15.50;59.80;;;;;;5023809;28;20225;-56
2021/01/03 05:20:05;;;;;;;19.23;14.30;;;15.50;59.70;;;;;;5043259;28;20214;-56
2021/01/03 05:22:36;;;;;;;19.77;14.83;;;15.50;59.80;;;;;;5037590;28;20214;-55
2021/01/03 05:25:08;;;;;;;18.03;13.63;;;15.40;59.70;;;;;;5043580;28;20651;-55
2021/01/03 05:27:35;;;;;;;19.77;13.37;;;15.50;59.80;;;;;;5040097;28;20198;-55
2021/01/03 05:30:26;;;;;;;19.70;14.10;;;15.50;59.80;;;;;;5044625;28;20214;-55
2021/01/03 05:33:05;;;;;;;21.50;14.37;;;15.40;59.80;;;;;;5037201;28;20222;-55
2021/01/03 05:35:40;;;;;;;20.60;14.97;;;15.50;59.90;;;;;;5045824;28;20210;-56
2021/01/03 05:38:07;;;;;;;17.80;14.20;;;15.40;59.70;;;;;;5037698;28;20662;-56
2021/01/03 05:40:39;;;;;;;20.37;15.07;;;15.40;59.80;;;;;;5044262;28;20210;-56
2021/01/03 05:43:14;;;;;;;20.67;14.10;;;15.50;59.90;;;;;;5034372;28;20207;-56
2021/01/03 05:46:05;;;;;;;17.17;13.37;;;15.50;59.80;;;;;;5046171;28;20210;-56
2021/01/03 05:48:43;;;;;;;17.30;13.60;;;15.40;59.80;;;;;;5026108;28;20210;-56
2021/01/03 05:51:29;;;;;;;17.70;13.73;;;15.50;60.00;;;;;;5045294;28;20219;-55
2021/01/03 05:54:07;;;;;;;20.57;15.40;;;15.40;59.80;;;;;;5039598;28;20218;-55
2021/01/03 05:56:35;;;;;;;17.40;14.27;;;15.40;59.90;;;;;;5046432;28;20206;-55
2021/01/03 05:59:03;;;;;;;19.17;14.50;;;15.40;59.90;;;;;;5041655;28;20214;-54
2021/01/03 06:01:33;;;;;;;19.20;14.37;;;15.40;60.00;;;;;;5048018;28;20222;-55
2021/01/03 06:04:00;;;;;;;17.17;13.43;;;15.40;59.90;;;;;;5041380;28;20206;-56
2021/01/03 06:07:13;;;;;;;18.27;13.90;;;15.40;59.90;;;;;;5048681;28;20206;-56
2021/01/03 06:09:42;;;;;;;17.30;13.73;;;15.50;60.00;;;;;;5041727;28;20214;-55
2021/01/03 06:12:13;;;;;;;20.40;15.30;;;15.50;60.00;;;;;;5047578;28;20202;-56
2021/01/03 06:14:40;;;;;;;18.77;15.13;;;15.40;59.90;;;;;;5042066;28;20206;-54
2021/01/03 06:17:36;;;;;;;19.20;14.80;;;15.40;59.80;;;;;;5047280;28;20619;-54
2021/01/03 06:20:17;;;;;;;17.17;13.67;;;15.40;59.80;;;;;;5041804;28;20300;-59
2021/01/03 06:22:48;;;;;;;19.20;15.60;;;15.40;59.70;;;;;;5048235;28;20217;-55
2021/01/03 06:25:36;;;;;;;19.47;15.30;;;15.50;60.20;;;;;;5038466;28;21078;-55
2021/01/03 23:05:07;;;;;;;1.43;1.30;;;15.20;56.80;;;;;;5005899;28;20238;-55
2021/01/03 23:08:01;;;;;;;2.93;1.20;;;15.10;56.80;;;;;;5013516;28;20763;-55
2021/01/03 23:10:34;;;;;;;1.73;1.20;;;15.10;56.70;;;;;;4972747;28;20219;-55
2021/01/03 23:13:32;;;;;;;1.40;1.30;;;15.10;56.80;;;;;;5009139;28;20559;-55
2021/01/03 23:16:06;;;;;;;1.40;1.30;;;15.10;56.70;;;;;;4999043;28;20577;-55
2021/01/03 23:18:53;;;;;;;1.17;1.00;;;15.10;56.80;;;;;;5006591;28;20190;-55
2021/01/03 23:21:24;;;;;;;1.40;1.30;;;15.10;56.70;;;;;;4998269;28;20223;-55
2021/01/03 23:23:59;;;;;;;1.50;1.20;;;15.10;56.70;;;;;;5013274;28;20191;-55
2021/01/03 23:26:30;;;;;;;1.90;1.40;;;15.10;56.70;;;;;;4999706;28;20635;-55
2021/01/03 23:29:08;;;;;;;2.37;1.60;;;15.10;56.70;;;;;;5014031;28;20180;-55
2021/01/03 23:31:38;;;;;;;1.60;1.40;;;15.10;56.60;;;;;;4997957;28;20611;-55
2021/01/03 23:34:21;;;;;;;1.30;1.20;;;15.10;56.60;;;;;;5009688;28;20569;-55
2021/01/03 23:36:59;;;;;;;1.63;1.40;;;15.10;56.60;;;;;;4988835;28;20216;-55
2021/01/03 23:39:37;;;;;;;1.30;1.10;;;15.10;56.60;;;;;;4998733;28;20210;-55
2021/01/03 23:42:11;;;;;;;1.20;1.10;;;15.10;56.60;;;;;;5001416;28;20225;-55
2021/01/03 23:44:43;;;;;;;1.63;1.27;;;15.10;56.50;;;;;;5008786;28;20203;-55
2021/01/03 23:47:24;;;;;;;1.37;1.27;;;15.10;56.50;;;;;;5000728;28;20204;-55
2021/01/03 23:50:05;;;;;;;1.50;1.40;;;15.10;56.50;;;;;;5008664;28;20199;-55
2021/01/03 23:52:55;;;;;;;1.50;1.40;;;15.10;56.50;;;;;;5003783;28;20192;-55
2021/01/03 23:56:00;;;;;;;1.10;1.00;;;15.10;56.50;;;;;;5008696;28;20204;-55
2021/01/03 23:58:46;;;;;;;1.20;1.10;;;15.10;56.50;;;;;;4973239;28;20229;-55
